createdAt,value
2018-03-06T00:02:01.685Z,57.05
2018-03-06T00:04:29.947Z,71.07
2018-03-06T00:06:57.483Z,60.70
2018-03-06T00:09:25.060Z,70.47
2018-03-06T00:11:53.096Z,69.80
2018-03-06T00:14:21.396Z,68.95
2018-03-06T00:16:48.946Z,59.25
2018-03-06T00:19:17.862Z,64.25
2018-03-06T00:21:45.627Z,66.82
2018-03-06T00:24:13.130Z,58.33
2018-03-06T00:26:40.658Z,79.62
2018-03-06T00:29:08.192Z,60.28
2018-03-06T00:31:35.744Z,64.85
2018-03-06T00:34:03.287Z,61.53
2018-03-06T00:36:31.425Z,69.32
2018-03-06T00:38:58.939Z,58.10
2018-03-06T00:41:27.243Z,77.18
2018-03-06T00:43:54.783Z,63.53
2018-03-06T00:46:23.061Z,64.45
2018-03-06T00:48:51.331Z,66.12
2018-03-06T00:51:19.624Z,53.35
2018-03-06T00:53:47.917Z,63.65
2018-03-06T00:56:16.284Z,57.28
2018-03-06T00:58:44.632Z,70.90
2018-03-06T01:01:12.159Z,76.00
2018-03-06T01:03:39.673Z,67.35
2018-03-06T01:06:07.209Z,60.60
2018-03-06T01:08:34.765Z,65.68
2018-03-06T01:11:02.299Z,71.12
2018-03-06T01:13:29.867Z,67.78
2018-03-06T01:15:57.410Z,65.78
2018-03-06T01:18:24.925Z,63.08
2018-03-06T01:20:52.446Z,60.38
2018-03-06T01:23:20.740Z,76.37
2018-03-06T01:25:49.089Z,55.05
2018-03-06T01:28:16.603Z,56.70
2018-03-06T01:30:44.157Z,55.80
2018-03-06T01:33:11.675Z,52.60
2018-03-06T01:35:39.196Z,62.97
2018-03-06T01:38:06.683Z,77.55
2018-03-06T01:40:34.217Z,68.95
2018-03-06T01:43:01.771Z,58.13
2018-03-06T01:45:29.325Z,62.65
2018-03-06T01:47:57.699Z,56.58
2018-03-06T01:50:25.212Z,63.00
2018-03-06T01:52:52.815Z,51.05
2018-03-06T01:55:20.349Z,59.90
2018-03-06T01:57:47.922Z,67.37
2018-03-06T02:00:15.424Z,62.17
2018-03-06T02:02:43.767Z,60.20
2018-03-06T02:05:11.282Z,66.12
2018-03-06T02:07:38.860Z,61.37
2018-03-06T02:10:06.370Z,67.68
2018-03-06T02:12:33.902Z,67.60
2018-03-06T02:15:01.426Z,56.78
2018-03-06T02:17:29.738Z,58.25
2018-03-06T02:19:57.251Z,57.92
2018-03-06T02:22:24.758Z,58.97
2018-03-06T02:24:52.281Z,65.47
2018-03-06T02:27:20.571Z,70.72
2018-03-06T02:29:48.861Z,55.83
2018-03-06T02:32:17.141Z,65.18
2018-03-06T02:34:45.499Z,63.13
2018-03-06T02:37:13.052Z,64.45
2018-03-06T02:39:40.546Z,68.68
2018-03-06T02:42:08.839Z,59.42
2018-03-06T02:44:36.341Z,76.15
2018-03-06T02:47:03.880Z,61.00
2018-03-06T02:49:31.378Z,67.60
2018-03-06T02:51:58.934Z,63.83
2018-03-06T02:54:26.466Z,65.32
2018-03-06T02:56:53.986Z,63.80
2018-03-06T02:59:21.510Z,74.25
2018-03-06T03:01:49.041Z,66.75
2018-03-06T03:04:17.359Z,83.55
2018-03-06T03:06:45.013Z,67.93
2018-03-06T03:09:12.510Z,54.97
2018-03-06T03:11:40.866Z,79.75
2018-03-06T03:14:08.371Z,68.53
2018-03-06T03:16:36.072Z,70.15
2018-03-06T03:19:04.798Z,68.28
2018-03-06T03:21:32.350Z,77.55
2018-03-06T03:23:59.870Z,60.42
2018-03-06T03:26:27.434Z,65.55
2018-03-06T03:28:55.012Z,69.10
2018-03-06T03:31:23.303Z,70.32
2018-03-06T03:33:51.654Z,69.28
2018-03-06T03:36:19.178Z,63.17
2018-03-06T03:38:46.700Z,69.22
2018-03-06T03:41:14.983Z,73.90
2018-03-06T03:43:43.562Z,62.95
2018-03-06T03:46:11.834Z,63.17
2018-03-06T03:48:39.382Z,81.07
2018-03-06T03:51:06.980Z,55.95
2018-03-06T03:53:35.262Z,65.85
2018-03-06T03:56:03.564Z,81.20
2018-03-06T03:58:31.113Z,68.07
2018-03-06T04:00:59.009Z,81.25
2018-03-06T04:03:26.978Z,74.68
2018-03-06T04:05:54.487Z,68.40
2018-03-06T04:08:22.640Z,67.78
2018-03-06T04:10:50.158Z,69.07
2018-03-06T04:13:18.494Z,73.78
2018-03-06T04:15:45.993Z,82.00
2018-03-06T04:18:13.501Z,75.85
2018-03-06T04:20:41.007Z,72.97
2018-03-06T04:23:09.321Z,82.90
2018-03-06T04:25:36.918Z,86.05
2018-03-06T04:28:04.456Z,84.43
2018-03-06T04:30:31.968Z,69.55
2018-03-06T04:32:59.488Z,72.43
2018-03-06T04:35:27.008Z,70.85
2018-03-06T04:37:54.544Z,70.78
2018-03-06T04:40:22.056Z,73.87
2018-03-06T04:42:50.349Z,65.18
2018-03-06T04:45:17.881Z,79.53
2018-03-06T04:47:45.474Z,77.78
2018-03-06T04:50:13.005Z,74.05
2018-03-06T04:52:40.535Z,73.15
2018-03-06T04:55:08.062Z,75.95
2018-03-06T04:57:35.589Z,85.22
2018-03-06T05:00:03.153Z,64.78
2018-03-06T05:02:30.667Z,72.95
2018-03-06T05:04:58.198Z,82.03
2018-03-06T05:07:26.548Z,67.72
2018-03-06T05:09:54.612Z,67.62
2018-03-06T05:12:22.144Z,76.00
2018-03-06T05:14:50.428Z,73.22
2018-03-06T05:17:18.081Z,78.75
2018-03-06T05:19:46.432Z,76.93
2018-03-06T05:22:14.726Z,83.00
2018-03-06T05:24:42.243Z,64.85
2018-03-06T05:27:09.760Z,67.37
2018-03-06T05:29:37.348Z,77.47
2018-03-06T05:32:04.872Z,82.32
2018-03-06T05:34:32.494Z,87.28
2018-03-06T05:37:00.001Z,73.35
2018-03-06T05:39:27.539Z,89.95
2018-03-06T05:41:55.065Z,82.40
2018-03-06T05:44:23.515Z,81.37
2018-03-06T05:46:51.049Z,58.10
2018-03-06T05:49:18.566Z,79.30
2018-03-06T05:51:46.851Z,74.55
2018-03-06T05:54:15.289Z,86.12
2018-03-06T05:56:42.829Z,75.50
2018-03-06T05:59:10.377Z,74.07
2018-03-06T06:01:39.211Z,73.78
2018-03-06T06:04:06.771Z,82.35
2018-03-06T06:06:34.298Z,67.28
2018-03-06T06:09:01.815Z,93.80
2018-03-06T06:11:29.322Z,81.57
2018-03-06T06:13:56.879Z,70.30
2018-03-06T06:16:25.145Z,76.03
2018-03-06T06:18:52.815Z,72.90
2018-03-06T06:21:20.349Z,88.07
2018-03-06T06:23:48.873Z,73.40
2018-03-06T06:26:16.414Z,77.30
2018-03-06T06:28:44.655Z,71.43
2018-03-06T06:31:12.139Z,67.35
2018-03-06T06:33:39.679Z,68.00
2018-03-06T06:36:07.207Z,79.80
2018-03-06T06:38:34.801Z,70.78
2018-03-06T06:41:02.473Z,99.62
2018-03-06T06:43:30.023Z,72.55
2018-03-06T06:45:57.607Z,71.85
2018-03-06T06:48:25.258Z,83.03
2018-03-06T06:50:52.788Z,67.53
2018-03-06T06:53:20.291Z,73.10
2018-03-06T06:55:47.812Z,77.55
2018-03-06T06:58:15.297Z,72.47
2018-03-06T07:00:43.585Z,73.85
2018-03-06T07:03:11.277Z,78.68
2018-03-06T07:05:38.803Z,77.70
2018-03-06T07:08:06.297Z,81.75
2018-03-06T07:10:33.829Z,84.53
2018-03-06T07:13:02.303Z,70.50
2018-03-06T07:15:29.813Z,74.87
2018-03-06T07:17:57.327Z,84.55
2018-03-06T07:20:24.838Z,87.00
2018-03-06T07:22:52.449Z,68.35
2018-03-06T07:25:20.813Z,79.25
2018-03-06T07:27:48.373Z,77.90
2018-03-06T07:30:15.973Z,79.57
2018-03-06T07:32:43.492Z,82.85
2018-03-06T07:35:11.013Z,67.62
2018-03-06T07:37:39.407Z,74.20
2018-03-06T07:40:07.713Z,86.47
2018-03-06T07:42:35.213Z,76.55
2018-03-06T07:45:02.716Z,91.03
2018-03-06T07:47:30.993Z,68.03
2018-03-06T07:49:59.324Z,87.10
2018-03-06T07:52:27.048Z,70.75
2018-03-06T07:54:54.547Z,76.47
2018-03-06T07:57:27.429Z,71.93
2018-03-06T07:59:54.959Z,81.10
2018-03-06T08:02:22.909Z,88.90
2018-03-06T08:04:51.201Z,72.95
2018-03-06T08:07:18.735Z,71.62
2018-03-06T08:09:46.241Z,74.78
2018-03-06T08:12:14.046Z,67.20
2018-03-06T08:14:41.559Z,82.97
2018-03-06T08:17:09.881Z,77.30
2018-03-06T08:19:37.410Z,81.93
2018-03-06T08:22:05.733Z,75.93
2018-03-06T08:24:33.261Z,85.38
2018-03-06T08:27:00.794Z,83.25
2018-03-06T08:29:29.077Z,73.37
2018-03-06T08:31:56.581Z,77.95
2018-03-06T08:34:24.245Z,72.28
2018-03-06T08:36:51.757Z,80.75
2018-03-06T08:39:19.269Z,74.65
2018-03-06T08:41:46.781Z,64.10
2018-03-06T08:44:14.312Z,77.18
2018-03-06T08:46:42.752Z,82.32
2018-03-06T08:49:11.035Z,79.43
2018-03-06T08:51:38.591Z,76.53
2018-03-06T08:54:06.105Z,80.23
2018-03-06T08:56:38.529Z,69.70
2018-03-06T08:59:06.018Z,71.33
2018-03-06T09:01:34.292Z,82.90
2018-03-06T09:04:02.578Z,76.47
2018-03-06T09:06:30.847Z,81.30
2018-03-06T09:08:58.344Z,85.03
2018-03-06T09:11:25.862Z,72.03
2018-03-06T09:13:53.357Z,79.80
2018-03-06T09:16:20.877Z,74.60
2018-03-06T09:18:48.411Z,81.60
2018-03-06T09:21:16.063Z,85.10
2018-03-06T09:23:43.560Z,68.30
2018-03-06T09:26:11.179Z,72.77
2018-03-06T09:28:38.723Z,70.97
2018-03-06T09:31:07.100Z,82.87
2018-03-06T09:33:34.610Z,78.83
2018-03-06T09:36:02.097Z,76.03
2018-03-06T09:38:29.605Z,87.37
2018-03-06T09:40:57.923Z,79.20
2018-03-06T09:43:25.428Z,76.90
2018-03-06T09:45:52.919Z,82.40
2018-03-06T09:48:21.243Z,89.47
2018-03-06T09:50:48.776Z,81.97
2018-03-06T09:53:16.315Z,84.60
2018-03-06T09:55:44.601Z,89.20
2018-03-06T09:58:12.917Z,98.97
2018-03-06T10:00:41.808Z,88.20
2018-03-06T10:03:09.301Z,78.33
2018-03-06T10:05:36.821Z,89.17
2018-03-06T10:08:04.324Z,93.20
2018-03-06T10:10:31.827Z,86.60
2018-03-06T10:13:00.139Z,81.97
2018-03-06T10:15:27.645Z,76.40
2018-03-06T10:17:55.166Z,80.23
2018-03-06T10:20:22.731Z,82.20
2018-03-06T10:22:50.254Z,78.90
2018-03-06T10:25:18.541Z,75.47
2018-03-06T10:27:46.871Z,77.10
2018-03-06T10:30:14.390Z,81.07
2018-03-06T10:32:42.681Z,83.30
2018-03-06T10:35:10.205Z,75.93
2018-03-06T10:37:37.753Z,84.27
2018-03-06T10:40:06.216Z,78.60
2018-03-06T10:42:33.721Z,77.03
2018-03-06T10:45:01.236Z,71.77
2018-03-06T10:47:28.792Z,76.00
2018-03-06T10:49:56.483Z,61.53
2018-03-06T10:52:24.027Z,77.63
2018-03-06T10:54:51.613Z,67.07
2018-03-06T10:57:19.245Z,73.20
2018-03-06T10:59:47.512Z,68.77
2018-03-06T11:02:15.796Z,79.83
2018-03-06T11:04:44.104Z,76.07
2018-03-06T11:07:11.631Z,63.77
2018-03-06T11:09:39.954Z,69.37
2018-03-06T11:12:07.462Z,84.97
2018-03-06T11:14:35.044Z,82.63
2018-03-06T11:17:03.332Z,68.17
2018-03-06T11:19:31.610Z,69.00
2018-03-06T11:21:59.916Z,76.63
2018-03-06T11:24:27.431Z,66.90
2018-03-06T11:26:55.106Z,65.30
2018-03-06T11:29:22.648Z,65.17
2018-03-06T11:31:50.148Z,78.43
2018-03-06T11:34:18.424Z,81.73
2018-03-06T11:36:46.779Z,78.10
2018-03-06T11:39:14.369Z,72.97
2018-03-06T11:41:42.681Z,83.47
2018-03-06T11:44:10.193Z,82.17
2018-03-06T11:46:37.694Z,88.30
2018-03-06T11:49:05.969Z,84.83
2018-03-06T11:51:34.275Z,74.23
2018-03-06T11:54:01.787Z,90.17
2018-03-06T11:56:29.292Z,88.17
2018-03-06T11:58:56.802Z,88.00
2018-03-06T12:01:24.336Z,77.80
2018-03-06T12:03:51.848Z,74.37
2018-03-06T12:06:19.334Z,76.50
2018-03-06T12:08:47.646Z,84.37
2018-03-06T12:11:15.140Z,87.03
2018-03-06T12:13:43.398Z,100.87
2018-03-06T12:16:10.922Z,79.90
2018-03-06T12:18:39.275Z,81.47
2018-03-06T12:21:06.887Z,83.13
2018-03-06T12:23:34.394Z,82.30
2018-03-06T12:26:02.976Z,92.70
2018-03-06T12:28:30.611Z,88.17
2018-03-06T12:30:58.104Z,74.10
2018-03-06T12:33:25.620Z,77.57
2018-03-06T12:35:54.010Z,77.47
2018-03-06T12:38:21.520Z,83.73
2018-03-06T12:40:49.029Z,72.03
2018-03-06T12:43:17.370Z,78.90
2018-03-06T12:45:44.891Z,81.70
2018-03-06T12:48:12.411Z,79.30
2018-03-06T12:50:39.934Z,118.43
2018-03-06T12:53:07.770Z,87.73
2018-03-06T12:55:36.125Z,80.83
2018-03-06T12:58:03.649Z,100.33
2018-03-06T13:00:31.180Z,90.73
2018-03-06T13:02:59.528Z,97.43
2018-03-06T13:05:27.168Z,93.30
2018-03-06T13:07:54.718Z,89.83
2018-03-06T13:10:22.556Z,94.07
2018-03-06T13:12:50.844Z,92.77
2018-03-06T13:15:18.373Z,85.20
2018-03-06T13:17:45.934Z,91.33
2018-03-06T13:20:13.468Z,92.63
2018-03-06T13:22:41.225Z,85.67
2018-03-06T13:25:08.716Z,89.23
2018-03-06T13:27:36.224Z,80.10
2018-03-06T13:30:04.505Z,70.50
2018-03-06T13:32:32.756Z,70.77
2018-03-06T13:35:00.304Z,78.00
2018-03-06T13:37:27.886Z,79.30
2018-03-06T13:39:55.424Z,105.27
2018-03-06T13:42:22.930Z,107.20
2018-03-06T13:44:51.267Z,109.70
2018-03-06T13:47:18.784Z,101.70
2018-03-06T13:49:47.072Z,91.03
2018-03-06T13:52:15.361Z,98.57
2018-03-06T13:54:42.887Z,99.43
2018-03-06T13:57:11.070Z,111.50
2018-03-06T13:59:38.570Z,97.90
2018-03-06T14:02:06.240Z,110.00
2018-03-06T14:04:33.783Z,109.03
2018-03-06T14:07:01.314Z,130.43
2018-03-06T14:09:29.038Z,147.07
2018-03-06T14:11:56.572Z,130.87
2018-03-06T14:14:24.114Z,127.23
2018-03-06T14:16:51.622Z,127.67
2018-03-06T14:19:19.186Z,136.33
2018-03-06T14:21:46.798Z,143.13
2018-03-06T14:24:16.090Z,140.90
2018-03-06T14:26:43.607Z,147.10
2018-03-06T14:29:12.782Z,137.57
2018-03-06T14:31:40.310Z,124.47
2018-03-06T14:34:07.869Z,134.93
2018-03-06T14:36:35.424Z,143.47
2018-03-06T14:39:02.918Z,144.77
2018-03-06T14:41:30.456Z,144.80
2018-03-06T14:43:58.686Z,148.67
2018-03-06T14:46:26.240Z,157.63
2018-03-06T14:48:53.744Z,153.43
2018-03-06T14:51:22.042Z,153.40
2018-03-06T14:53:49.587Z,159.30
2018-03-06T14:56:17.909Z,140.07
2018-03-06T14:58:45.806Z,170.23
2018-03-06T15:01:13.334Z,134.43
2018-03-06T15:03:40.880Z,150.87
2018-03-06T15:06:08.393Z,151.97
2018-03-06T15:08:35.978Z,132.00
2018-03-06T15:11:04.254Z,141.87
2018-03-06T15:13:31.820Z,123.80
2018-03-06T15:16:00.140Z,143.90
2018-03-06T15:18:27.704Z,121.97
2018-03-06T15:20:55.240Z,119.40
2018-03-06T15:23:23.522Z,129.17
2018-03-06T15:25:51.842Z,139.67
2018-03-06T15:28:19.375Z,136.53
2018-03-06T15:30:46.901Z,132.50
2018-03-06T15:33:14.407Z,144.43
2018-03-06T15:35:41.898Z,124.97
2018-03-06T15:38:09.536Z,138.97
2018-03-06T15:40:37.205Z,132.20
2018-03-06T15:43:04.708Z,134.53
2018-03-06T15:45:33.097Z,159.63
2018-03-06T15:48:00.628Z,139.30
2018-03-06T15:50:28.160Z,128.90
2018-03-06T15:52:56.507Z,156.53
2018-03-06T15:55:24.048Z,149.30
2018-03-06T15:57:51.540Z,162.97
2018-03-06T16:00:19.104Z,148.50
2018-03-06T16:02:46.709Z,152.17
2018-03-06T16:05:14.993Z,171.50
2018-03-06T16:07:43.268Z,152.80
2018-03-06T16:10:11.576Z,160.20
2018-03-06T16:12:39.090Z,143.70
2018-03-06T16:15:06.635Z,144.67
2018-03-06T16:17:34.151Z,142.97
2018-03-06T16:20:01.904Z,134.67
2018-03-06T16:22:30.183Z,137.40
2018-03-06T16:24:58.475Z,152.70
2018-03-06T16:27:26.754Z,152.03
2018-03-06T16:29:55.111Z,163.17
2018-03-06T16:32:22.623Z,141.03
2018-03-06T16:34:50.147Z,144.07
2018-03-06T16:37:18.425Z,178.73
2018-03-06T16:39:45.953Z,149.37
2018-03-06T16:42:13.472Z,155.23
2018-03-06T16:44:41.767Z,158.97
2018-03-06T16:47:09.274Z,150.10
2018-03-06T16:49:36.829Z,155.47
2018-03-06T16:52:04.317Z,162.40
2018-03-06T16:54:31.867Z,171.73
2018-03-06T16:56:59.371Z,160.23
2018-03-06T16:59:27.646Z,163.97
2018-03-06T17:01:56.357Z,169.33
2018-03-06T17:04:23.870Z,175.17
2018-03-06T17:06:51.418Z,150.37
2018-03-06T17:09:19.052Z,177.63
2018-03-06T17:11:46.597Z,174.60
2018-03-06T17:14:14.897Z,164.33
2018-03-06T17:16:42.426Z,176.27
2018-03-06T17:19:11.059Z,166.87
2018-03-06T17:21:38.643Z,167.73
2018-03-06T17:24:06.151Z,170.40
2018-03-06T17:26:34.586Z,167.37
2018-03-06T17:29:02.081Z,170.20
2018-03-06T17:31:30.388Z,170.43
2018-03-06T17:33:58.674Z,169.43
2018-03-06T17:36:26.239Z,139.90
2018-03-06T17:38:54.199Z,173.53
2018-03-06T17:41:22.683Z,171.93
2018-03-06T17:43:51.007Z,155.45
2018-03-06T17:46:18.526Z,159.05
2018-03-06T17:48:46.855Z,165.90
2018-03-06T17:51:14.385Z,161.90
2018-03-06T17:53:41.905Z,152.48
2018-03-06T17:56:09.444Z,169.60
2018-03-06T17:58:36.961Z,157.02
2018-03-06T18:01:05.317Z,167.65
2018-03-06T18:03:33.729Z,163.85
2018-03-06T18:06:02.103Z,140.10
2018-03-06T18:08:30.383Z,150.87
2018-03-06T18:10:58.679Z,141.57
2018-03-06T18:13:26.955Z,148.15
2018-03-06T18:15:55.237Z,143.77
2018-03-06T18:18:23.556Z,151.02
2018-03-06T18:20:51.099Z,143.57
2018-03-06T18:23:18.641Z,138.23
2018-03-06T18:25:46.942Z,153.00
2018-03-06T18:28:14.463Z,153.18
2018-03-06T18:30:41.993Z,136.48
2018-03-06T18:33:09.852Z,151.93
2018-03-06T18:35:39.435Z,125.90
2018-03-06T18:38:07.182Z,135.18
2018-03-06T18:40:34.752Z,145.60
2018-03-06T18:43:03.057Z,132.75
2018-03-06T18:45:31.350Z,112.47
2018-03-06T18:47:58.869Z,137.82
2018-03-06T18:50:39.202Z,120.75
2018-03-06T18:53:06.886Z,128.02
2018-03-06T18:55:34.511Z,131.00
2018-03-06T18:58:02.068Z,128.75
2018-03-06T19:00:53.524Z,123.60
2018-03-06T19:03:32.869Z,116.20
2018-03-06T19:06:12.348Z,121.65
2018-03-06T19:08:39.925Z,117.10
2018-03-06T19:11:08.060Z,124.28
2018-03-06T19:13:36.383Z,123.65
2018-03-06T19:16:04.415Z,141.10
2018-03-06T19:18:32.076Z,121.82
2018-03-06T19:20:59.573Z,112.70
2018-03-06T19:23:27.171Z,105.28
2018-03-06T19:25:54.687Z,113.03
2018-03-06T19:28:22.259Z,115.37
2018-03-06T19:30:49.967Z,104.43
2018-03-06T19:33:17.594Z,105.65
2018-03-06T19:35:46.040Z,121.62
2018-03-06T19:38:13.617Z,106.60
2018-03-06T19:40:41.170Z,98.75
2018-03-06T19:43:08.726Z,107.85
2018-03-06T19:45:36.257Z,104.57
2018-03-06T19:48:03.812Z,95.05
2018-03-06T19:50:31.379Z,95.65
2018-03-06T19:52:58.890Z,98.18
2018-03-06T19:55:26.852Z,103.72
2018-03-06T19:57:54.387Z,94.57
2018-03-06T20:00:21.925Z,97.55
2018-03-06T20:02:49.500Z,93.53
2018-03-06T20:05:17.025Z,97.95
2018-03-06T20:07:45.368Z,89.78
2018-03-06T20:10:14.376Z,86.30
2018-03-06T20:12:42.688Z,97.75
2018-03-06T20:15:15.986Z,84.47
2018-03-06T20:17:43.555Z,90.95
2018-03-06T20:20:12.036Z,75.22
2018-03-06T20:22:39.552Z,93.00
2018-03-06T20:25:12.947Z,85.18
2018-03-06T20:27:40.466Z,93.30
2018-03-06T20:30:08.751Z,81.00
2018-03-06T20:32:42.796Z,88.15
2018-03-06T20:35:10.337Z,81.20
2018-03-06T20:37:38.691Z,98.28
2018-03-06T20:40:11.815Z,89.87
2018-03-06T20:42:39.386Z,78.22
2018-03-06T20:45:07.641Z,86.40
2018-03-06T20:47:35.932Z,80.97
2018-03-06T20:50:04.220Z,81.07
2018-03-06T20:52:38.322Z,74.70
2018-03-06T20:55:14.304Z,69.90
2018-03-06T20:57:41.913Z,81.32
2018-03-06T21:00:09.430Z,71.07
2018-03-06T21:02:36.969Z,78.45
2018-03-06T21:05:05.257Z,69.90
2018-03-06T21:07:34.003Z,58.15
2018-03-06T21:10:01.546Z,77.80
2018-03-06T21:12:29.106Z,63.38
2018-03-06T21:14:56.744Z,68.07
2018-03-06T21:17:25.014Z,71.35
2018-03-06T21:19:54.090Z,62.03
2018-03-06T21:22:21.827Z,67.55
2018-03-06T21:24:49.335Z,79.32
2018-03-06T21:27:17.010Z,69.37
2018-03-06T21:29:44.542Z,66.78
2018-03-06T21:32:12.058Z,64.80
2018-03-06T21:34:40.384Z,53.87
2018-03-06T21:37:09.670Z,63.63
2018-03-06T21:39:38.035Z,66.28
2018-03-06T21:42:05.633Z,69.00
2018-03-06T21:44:33.174Z,62.67
2018-03-06T21:47:00.710Z,67.45
2018-03-06T21:49:29.026Z,63.67
2018-03-06T21:51:56.542Z,60.17
2018-03-06T21:54:24.839Z,67.65
2018-03-06T21:56:53.481Z,60.28
2018-03-06T21:59:21.934Z,56.85
2018-03-06T22:01:49.639Z,68.30
2018-03-06T22:04:17.174Z,70.72
2018-03-06T22:06:44.762Z,58.83
2018-03-06T22:09:12.324Z,67.07
2018-03-06T22:11:40.639Z,63.42
2018-03-06T22:14:08.939Z,62.78
2018-03-06T22:16:37.215Z,71.00
2018-03-06T22:19:05.513Z,60.15
2018-03-06T22:21:33.260Z,61.13
2018-03-06T22:24:02.024Z,54.95
2018-03-06T22:26:29.638Z,61.30
2018-03-06T22:28:57.339Z,58.87
2018-03-06T22:31:24.861Z,62.97
2018-03-06T22:33:52.902Z,52.75
2018-03-06T22:36:20.396Z,55.40
2018-03-06T22:38:48.671Z,62.40
2018-03-06T22:41:17.002Z,67.47
2018-03-06T22:43:44.506Z,56.72
2018-03-06T22:46:12.862Z,71.78
2018-03-06T22:48:40.352Z,61.37
2018-03-06T22:51:09.189Z,61.67
2018-03-06T22:53:36.685Z,61.33
2018-03-06T22:56:04.211Z,66.30
2018-03-06T22:58:31.738Z,62.85
2018-03-06T23:01:00.023Z,67.70
2018-03-06T23:03:28.283Z,56.90
2018-03-06T23:05:55.788Z,65.00
2018-03-06T23:08:23.306Z,54.72
2018-03-06T23:10:50.829Z,64.43
2018-03-06T23:13:18.325Z,60.22
2018-03-06T23:15:45.863Z,50.60
2018-03-06T23:18:13.488Z,55.25
2018-03-06T23:20:41.754Z,52.70
2018-03-06T23:23:09.310Z,62.03
2018-03-06T23:25:36.894Z,54.53
2018-03-06T23:28:05.222Z,67.15
2018-03-06T23:30:32.935Z,58.50
2018-03-06T23:33:00.474Z,57.75
2018-03-06T23:35:28.021Z,63.45
2018-03-06T23:37:55.592Z,63.58
2018-03-06T23:40:23.109Z,53.35
2018-03-06T23:42:51.525Z,57.70
2018-03-06T23:45:19.310Z,55.05
2018-03-06T23:47:46.894Z,59.20
2018-03-06T23:50:14.858Z,61.35
2018-03-06T23:52:42.615Z,54.55
2018-03-06T23:55:11.673Z,55.22
2018-03-06T23:57:39.208Z,63.72
